sensor_id;sensor_type;location;lat;lon;timestamp;temperature;humidity
72712;SHT30;60828;40.292;17.998;2022-09-20T00:00:50;19.28;75.96
72712;SHT30;60828;40.292;17.998;2022-09-20T00:03:26;19.28;75.86
72712;SHT30;60828;40.292;17.998;2022-09-20T00:05:51;19.25;76.01
72712;SHT30;60828;40.292;17.998;2022-09-20T00:08:17;19.18;76.21
72712;SHT30;60828;40.292;17.998;2022-09-20T00:10:42;19.21;76.11
72712;SHT30;60828;40.292;17.998;2022-09-20T00:13:08;19.19;75.97
72712;SHT30;60828;40.292;17.998;2022-09-20T00:15:39;19.28;75.65
72712;SHT30;60828;40.292;17.998;2022-09-20T00:18:04;19.25;75.88
72712;SHT30;60828;40.292;17.998;2022-09-20T00:20:30;19.24;75.96
72712;SHT30;60828;40.292;17.998;2022-09-20T00:22:55;19.22;76.07
72712;SHT30;60828;40.292;17.998;2022-09-20T00:25:20;19.26;76.15
72712;SHT30;60828;40.292;17.998;2022-09-20T00:27:46;19.22;76.39
72712;SHT30;60828;40.292;17.998;2022-09-20T00:30:12;19.25;76.34
72712;SHT30;60828;40.292;17.998;2022-09-20T00:32:38;19.28;76.38
72712;SHT30;60828;40.292;17.998;2022-09-20T00:35:03;19.25;76.69
72712;SHT30;60828;40.292;17.998;2022-09-20T00:37:32;19.26;76.66
72712;SHT30;60828;40.292;17.998;2022-09-20T00:39:58;19.29;76.63
72712;SHT30;60828;40.292;17.998;2022-09-20T00:42:27;19.42;76.36
72712;SHT30;60828;40.292;17.998;2022-09-20T00:44:56;19.26;76.72
72712;SHT30;60828;40.292;17.998;2022-09-20T00:47:28;19.26;76.61
72712;SHT30;60828;40.292;17.998;2022-09-20T00:50:00;19.36;76.30
72712;SHT30;60828;40.292;17.998;2022-09-20T00:52:26;19.24;76.60
72712;SHT30;60828;40.292;17.998;2022-09-20T00:54:53;19.21;76.67
72712;SHT30;60828;40.292;17.998;2022-09-20T01:02:29;19.25;76.76
72712;SHT30;60828;40.292;17.998;2022-09-20T01:04:55;19.26;76.76
72712;SHT30;60828;40.292;17.998;2022-09-20T01:07:21;19.39;76.44
72712;SHT30;60828;40.292;17.998;2022-09-20T01:09:48;19.36;76.54
72712;SHT30;60828;40.292;17.998;2022-09-20T01:12:24;19.26;76.91
72712;SHT30;60828;40.292;17.998;2022-09-20T01:14:50;19.24;76.98
72712;SHT30;60828;40.292;17.998;2022-09-20T01:17:17;19.15;77.36
72712;SHT30;60828;40.292;17.998;2022-09-20T01:19:57;19.24;77.41
72712;SHT30;60828;40.292;17.998;2022-09-20T01:22:26;19.36;77.21
72712;SHT30;60828;40.292;17.998;2022-09-20T01:25:13;19.45;77.14
72712;SHT30;60828;40.292;17.998;2022-09-20T01:30:05;19.39;77.28
72712;SHT30;60828;40.292;17.998;2022-09-20T01:32:35;19.28;77.49
72712;SHT30;60828;40.292;17.998;2022-09-20T01:35:06;19.25;77.50
72712;SHT30;60828;40.292;17.998;2022-09-20T01:37:38;19.28;77.43
72712;SHT30;60828;40.292;17.998;2022-09-20T01:40:09;19.35;77.18
72712;SHT30;60828;40.292;17.998;2022-09-20T01:42:36;19.35;77.13
72712;SHT30;60828;40.292;17.998;2022-09-20T02:13:00;19.04;75.79
72712;SHT30;60828;40.292;17.998;2022-09-20T02:15:38;19.01;75.74
72712;SHT30;60828;40.292;17.998;2022-09-20T02:18:19;19.00;75.42
72712;SHT30;60828;40.292;17.998;2022-09-20T02:52:19;18.50;73.01
72712;SHT30;60828;40.292;17.998;2022-09-20T03:03:18;18.25;73.03
72712;SHT30;60828;40.292;17.998;2022-09-20T03:11:31;18.01;73.92
72712;SHT30;60828;40.292;17.998;2022-09-20T03:22:04;18.06;73.61
72712;SHT30;60828;40.292;17.998;2022-09-20T03:24:54;18.00;73.67
72712;SHT30;60828;40.292;17.998;2022-09-20T03:27:27;17.95;73.94
72712;SHT30;60828;40.292;17.998;2022-09-20T03:35:21;17.95;73.70
72712;SHT30;60828;40.292;17.998;2022-09-20T03:43:36;17.87;73.88
72712;SHT30;60828;40.292;17.998;2022-09-20T04:02:13;17.64;74.20
72712;SHT30;60828;40.292;17.998;2022-09-20T04:04:52;17.67;74.13
72712;SHT30;60828;40.292;17.998;2022-09-20T04:07:29;17.70;74.25
72712;SHT30;60828;40.292;17.998;2022-09-20T04:15:31;17.84;74.43
72712;SHT30;60828;40.292;17.998;2022-09-20T04:20:33;17.91;74.43
72712;SHT30;60828;40.292;17.998;2022-09-20T04:23:03;17.91;74.52
72712;SHT30;60828;40.292;17.998;2022-09-20T04:25:38;17.91;74.50
72712;SHT30;60828;40.292;17.998;2022-09-20T04:28:07;17.94;74.60
72712;SHT30;60828;40.292;17.998;2022-09-20T04:30:37;17.94;74.65
72712;SHT30;60828;40.292;17.998;2022-09-20T04:33:19;17.90;74.35
72712;SHT30;60828;40.292;17.998;2022-09-20T04:38:32;17.77;74.65
72712;SHT30;60828;40.292;17.998;2022-09-20T05:27:52;19.22;72.92
72712;SHT30;60828;40.292;17.998;2022-09-20T05:33:17;19.43;72.23
72712;SHT30;60828;40.292;17.998;2022-09-20T05:43:29;19.90;70.59
72712;SHT30;60828;40.292;17.998;2022-09-20T05:54:02;22.17;64.98
72712;SHT30;60828;40.292;17.998;2022-09-20T05:59:20;23.03;62.21
72712;SHT30;60828;40.292;17.998;2022-09-20T06:22:39;33.20;41.58
72712;SHT30;60828;40.292;17.998;2022-09-20T06:27:50;36.82;35.97
72712;SHT30;60828;40.292;17.998;2022-09-20T06:30:29;36.38;36.62
72712;SHT30;60828;40.292;17.998;2022-09-20T06:33:05;33.89;39.64
72712;SHT30;60828;40.292;17.998;2022-09-20T06:35:46;32.86;42.34
72712;SHT30;60828;40.292;17.998;2022-09-20T06:41:12;30.63;47.01
72712;SHT30;60828;40.292;17.998;2022-09-20T06:43:57;29.42;50.25
72712;SHT30;60828;40.292;17.998;2022-09-20T06:46:26;29.60;50.36
72712;SHT30;60828;40.292;17.998;2022-09-20T06:48:52;31.25;45.92
72712;SHT30;60828;40.292;17.998;2022-09-20T06:51:18;33.13;42.73
72712;SHT30;60828;40.292;17.998;2022-09-20T06:53:43;35.56;39.01
72712;SHT30;60828;40.292;17.998;2022-09-20T06:56:14;35.83;37.99
72712;SHT30;60828;40.292;17.998;2022-09-20T06:58:39;36.39;37.13
72712;SHT30;60828;40.292;17.998;2022-09-20T07:01:05;35.69;38.02
72712;SHT30;60828;40.292;17.998;2022-09-20T07:03:30;37.07;35.75
72712;SHT30;60828;40.292;17.998;2022-09-20T07:05:57;37.44;35.52
72712;SHT30;60828;40.292;17.998;2022-09-20T07:08:24;38.39;33.67
72712;SHT30;60828;40.292;17.998;2022-09-20T07:10:50;37.58;33.55
72712;SHT30;60828;40.292;17.998;2022-09-20T07:13:16;37.98;33.63
72712;SHT30;60828;40.292;17.998;2022-09-20T07:15:43;37.76;34.57
72712;SHT30;60828;40.292;17.998;2022-09-20T07:18:08;36.35;33.81
72712;SHT30;60828;40.292;17.998;2022-09-20T07:20:34;34.98;34.74
72712;SHT30;60828;40.292;17.998;2022-09-20T07:22:59;36.37;33.18
72712;SHT30;60828;40.292;17.998;2022-09-20T07:25:24;36.05;32.79
72712;SHT30;60828;40.292;17.998;2022-09-20T07:27:50;37.33;31.54
72712;SHT30;60828;40.292;17.998;2022-09-20T07:30:16;38.72;30.43
72712;SHT30;60828;40.292;17.998;2022-09-20T07:32:41;37.45;31.41
72712;SHT30;60828;40.292;17.998;2022-09-20T07:35:08;37.41;32.08
72712;SHT30;60828;40.292;17.998;2022-09-20T07:37:33;38.39;30.58
72712;SHT30;60828;40.292;17.998;2022-09-20T07:39:59;37.41;30.29
72712;SHT30;60828;40.292;17.998;2022-09-20T07:42:24;37.14;31.14
72712;SHT30;60828;40.292;17.998;2022-09-20T07:44:49;37.23;31.39
72712;SHT30;60828;40.292;17.998;2022-09-20T07:47:16;36.51;32.59
72712;SHT30;60828;40.292;17.998;2022-09-20T07:49:43;36.68;32.16
72712;SHT30;60828;40.292;17.998;2022-09-20T07:52:09;38.13;30.20
72712;SHT30;60828;40.292;17.998;2022-09-20T07:54:35;36.79;31.43
72712;SHT30;60828;40.292;17.998;2022-09-20T07:57:00;36.52;32.00
72712;SHT30;60828;40.292;17.998;2022-09-20T07:59:27;36.72;32.12
72712;SHT30;60828;40.292;17.998;2022-09-20T08:01:52;35.46;32.81
72712;SHT30;60828;40.292;17.998;2022-09-20T08:04:17;35.69;33.31
72712;SHT30;60828;40.292;17.998;2022-09-20T08:06:43;37.89;31.02
72712;SHT30;60828;40.292;17.998;2022-09-20T08:09:09;37.90;30.38
72712;SHT30;60828;40.292;17.998;2022-09-20T08:11:35;38.43;30.13
72712;SHT30;60828;40.292;17.998;2022-09-20T08:14:00;37.82;30.45
72712;SHT30;60828;40.292;17.998;2022-09-20T08:16:27;35.54;33.44
72712;SHT30;60828;40.292;17.998;2022-09-20T08:18:56;33.64;35.69
72712;SHT30;60828;40.292;17.998;2022-09-20T08:21:32;35.43;32.50
72712;SHT30;60828;40.292;17.998;2022-09-20T08:23:58;34.83;32.84
72712;SHT30;60828;40.292;17.998;2022-09-20T08:26:24;35.86;31.90
72712;SHT30;60828;40.292;17.998;2022-09-20T08:28:53;35.29;32.70
72712;SHT30;60828;40.292;17.998;2022-09-20T08:31:21;35.90;32.28
72712;SHT30;60828;40.292;17.998;2022-09-20T08:33:48;35.41;33.11
72712;SHT30;60828;40.292;17.998;2022-09-20T08:36:24;36.72;31.04
72712;SHT30;60828;40.292;17.998;2022-09-20T08:38:51;37.33;29.95
72712;SHT30;60828;40.292;17.998;2022-09-20T08:41:24;36.52;30.90
72712;SHT30;60828;40.292;17.998;2022-09-20T08:44:05;35.28;32.43
72712;SHT30;60828;40.292;17.998;2022-09-20T08:46:33;36.39;30.98
72712;SHT30;60828;40.292;17.998;2022-09-20T08:49:02;36.25;31.24
72712;SHT30;60828;40.292;17.998;2022-09-20T08:51:32;38.01;29.13
72712;SHT30;60828;40.292;17.998;2022-09-20T08:53:58;36.57;30.54
72712;SHT30;60828;40.292;17.998;2022-09-20T08:56:28;35.62;32.20
72712;SHT30;60828;40.292;17.998;2022-09-20T08:58:55;33.24;35.29
72712;SHT30;60828;40.292;17.998;2022-09-20T09:01:25;32.64;35.32
72712;SHT30;60828;40.292;17.998;2022-09-20T09:03:51;33.57;34.56
72712;SHT30;60828;40.292;17.998;2022-09-20T09:06:18;33.74;33.22
72712;SHT30;60828;40.292;17.998;2022-09-20T09:08:44;33.35;33.83
72712;SHT30;60828;40.292;17.998;2022-09-20T09:11:16;33.95;32.09
72712;SHT30;60828;40.292;17.998;2022-09-20T09:16:15;34.15;30.77
72712;SHT30;60828;40.292;17.998;2022-09-20T09:18:43;34.72;30.21
72712;SHT30;60828;40.292;17.998;2022-09-20T09:21:08;34.99;29.05
72712;SHT30;60828;40.292;17.998;2022-09-20T09:23:44;35.28;29.69
72712;SHT30;60828;40.292;17.998;2022-09-20T09:26:14;36.12;29.75
72712;SHT30;60828;40.292;17.998;2022-09-20T09:28:40;36.05;29.92
72712;SHT30;60828;40.292;17.998;2022-09-20T09:34:32;33.50;31.80
72712;SHT30;60828;40.292;17.998;2022-09-20T09:37:00;32.87;31.70
72712;SHT30;60828;40.292;17.998;2022-09-20T09:39:32;33.11;32.36
72712;SHT30;60828;40.292;17.998;2022-09-20T09:41:59;32.54;32.08
72712;SHT30;60828;40.292;17.998;2022-09-20T09:44:31;31.53;33.94
72712;SHT30;60828;40.292;17.998;2022-09-20T09:47:00;31.49;35.73
72712;SHT30;60828;40.292;17.998;2022-09-20T09:49:26;31.54;36.12
72712;SHT30;60828;40.292;17.998;2022-09-20T09:54:20;33.03;34.88
72712;SHT30;60828;40.292;17.998;2022-09-20T09:56:51;32.52;35.83
72712;SHT30;60828;40.292;17.998;2022-09-20T10:00:08;32.14;35.89
72712;SHT30;60828;40.292;17.998;2022-09-20T10:04:42;34.03;32.05
72712;SHT30;60828;40.292;17.998;2022-09-20T10:07:24;33.16;31.42
72712;SHT30;60828;40.292;17.998;2022-09-20T10:12:54;33.74;32.78
72712;SHT30;60828;40.292;17.998;2022-09-20T10:15:29;32.65;34.78
72712;SHT30;60828;40.292;17.998;2022-09-20T10:38:40;31.77;34.48
72712;SHT30;60828;40.292;17.998;2022-09-20T10:49:19;31.98;34.13
72712;SHT30;60828;40.292;17.998;2022-09-20T10:57:42;30.33;36.40
72712;SHT30;60828;40.292;17.998;2022-09-20T11:08:19;28.30;39.19
72712;SHT30;60828;40.292;17.998;2022-09-20T11:13:24;29.22;36.28
72712;SHT30;60828;40.292;17.998;2022-09-20T11:16:13;29.85;35.07
72712;SHT30;60828;40.292;17.998;2022-09-20T11:21:38;28.27;35.29
72712;SHT30;60828;40.292;17.998;2022-09-20T11:26:49;27.97;37.24
72712;SHT30;60828;40.292;17.998;2022-09-20T11:29:31;27.85;37.40
72712;SHT30;60828;40.292;17.998;2022-09-20T11:34:51;27.03;37.53
72712;SHT30;60828;40.292;17.998;2022-09-20T11:37:19;27.06;37.75
72712;SHT30;60828;40.292;17.998;2022-09-20T11:39:48;27.21;37.48
72712;SHT30;60828;40.292;17.998;2022-09-20T11:42:16;27.27;37.84
72712;SHT30;60828;40.292;17.998;2022-09-20T11:44:43;27.34;38.07
72712;SHT30;60828;40.292;17.998;2022-09-20T11:53:22;27.61;37.67
72712;SHT30;60828;40.292;17.998;2022-09-20T11:57:43;27.11;38.94
72712;SHT30;60828;40.292;17.998;2022-09-20T12:00:09;26.90;39.42
72712;SHT30;60828;40.292;17.998;2022-09-20T12:02:40;26.94;39.49
72712;SHT30;60828;40.292;17.998;2022-09-20T12:07:55;26.56;42.38
72712;SHT30;60828;40.292;17.998;2022-09-20T12:12:47;26.38;44.06
72712;SHT30;60828;40.292;17.998;2022-09-20T12:23:41;27.30;41.62
72712;SHT30;60828;40.292;17.998;2022-09-20T12:25:51;26.84;43.43
72712;SHT30;60828;40.292;17.998;2022-09-20T12:28:37;26.42;44.70
72712;SHT30;60828;40.292;17.998;2022-09-20T12:34:31;26.25;45.01
72712;SHT30;60828;40.292;17.998;2022-09-20T12:39:26;26.25;45.36
72712;SHT30;60828;40.292;17.998;2022-09-20T12:49:34;26.20;45.78
72712;SHT30;60828;40.292;17.998;2022-09-20T12:52:22;26.25;45.80
72712;SHT30;60828;40.292;17.998;2022-09-20T12:55:08;25.94;46.59
72712;SHT30;60828;40.292;17.998;2022-09-20T12:57:38;25.83;46.75
72712;SHT30;60828;40.292;17.998;2022-09-20T13:00:05;25.98;46.55
72712;SHT30;60828;40.292;17.998;2022-09-20T13:16:10;26.96;43.84
72712;SHT30;60828;40.292;17.998;2022-09-20T13:18:40;27.30;42.84
72712;SHT30;60828;40.292;17.998;2022-09-20T13:21:06;27.38;42.47
72712;SHT30;60828;40.292;17.998;2022-09-20T13:23:34;28.09;41.13
72712;SHT30;60828;40.292;17.998;2022-09-20T13:26:06;27.27;42.36
72712;SHT30;60828;40.292;17.998;2022-09-20T13:28:39;26.72;43.36
72712;SHT30;60828;40.292;17.998;2022-09-20T13:33:45;26.84;42.91
72712;SHT30;60828;40.292;17.998;2022-09-20T13:36:14;26.38;43.63
72712;SHT30;60828;40.292;17.998;2022-09-20T13:38:40;25.91;44.31
72712;SHT30;60828;40.292;17.998;2022-09-20T13:41:07;25.96;44.64
72712;SHT30;60828;40.292;17.998;2022-09-20T13:43:39;25.47;44.29
72712;SHT30;60828;40.292;17.998;2022-09-20T13:46:50;25.45;44.32
72712;SHT30;60828;40.292;17.998;2022-09-20T13:48:52;25.66;44.17
72712;SHT30;60828;40.292;17.998;2022-09-20T13:51:21;26.37;43.09
72712;SHT30;60828;40.292;17.998;2022-09-20T13:53:47;26.83;42.89
72712;SHT30;60828;40.292;17.998;2022-09-20T13:56:20;26.83;42.55
72712;SHT30;60828;40.292;17.998;2022-09-20T13:58:47;26.69;42.54
72712;SHT30;60828;40.292;17.998;2022-09-20T14:01:29;26.97;42.50
72712;SHT30;60828;40.292;17.998;2022-09-20T14:03:57;26.86;41.13
72712;SHT30;60828;40.292;17.998;2022-09-20T14:06:24;26.27;42.24
72712;SHT30;60828;40.292;17.998;2022-09-20T14:09:04;26.01;43.08
72712;SHT30;60828;40.292;17.998;2022-09-20T14:11:57;25.36;43.55
72712;SHT30;60828;40.292;17.998;2022-09-20T14:27:33;24.56;46.32
72712;SHT30;60828;40.292;17.998;2022-09-20T14:29:59;24.63;46.54
72712;SHT30;60828;40.292;17.998;2022-09-20T14:35:18;24.22;46.94
72712;SHT30;60828;40.292;17.998;2022-09-20T14:37:48;24.35;47.02
72712;SHT30;60828;40.292;17.998;2022-09-20T14:40:19;24.23;47.24
72712;SHT30;60828;40.292;17.998;2022-09-20T14:42:50;24.23;47.07
72712;SHT30;60828;40.292;17.998;2022-09-20T14:45:26;24.26;47.54
72712;SHT30;60828;40.292;17.998;2022-09-20T14:47:59;24.29;47.36
72712;SHT30;60828;40.292;17.998;2022-09-20T14:50:31;24.13;47.52
72712;SHT30;60828;40.292;17.998;2022-09-20T14:55:36;24.13;47.61
72712;SHT30;60828;40.292;17.998;2022-09-20T14:58:08;24.02;47.01
72712;SHT30;60828;40.292;17.998;2022-09-20T15:03:37;24.05;47.51
72712;SHT30;60828;40.292;17.998;2022-09-20T15:06:14;24.01;47.50
72712;SHT30;60828;40.292;17.998;2022-09-20T15:09:08;24.11;47.89
72712;SHT30;60828;40.292;17.998;2022-09-20T15:14:28;24.13;47.68
72712;SHT30;60828;40.292;17.998;2022-09-20T15:16:57;24.32;47.82
72712;SHT30;60828;40.292;17.998;2022-09-20T15:19:46;24.02;48.31
72712;SHT30;60828;40.292;17.998;2022-09-20T15:25:26;23.82;49.56
72712;SHT30;60828;40.292;17.998;2022-09-20T15:28:02;23.77;48.39
72712;SHT30;60828;40.292;17.998;2022-09-20T15:30:31;23.73;48.54
72712;SHT30;60828;40.292;17.998;2022-09-20T15:32:56;23.58;48.81
72712;SHT30;60828;40.292;17.998;2022-09-20T15:35:24;23.60;49.39
72712;SHT30;60828;40.292;17.998;2022-09-20T15:37:49;23.73;49.24
72712;SHT30;60828;40.292;17.998;2022-09-20T15:40:23;23.61;48.53
72712;SHT30;60828;40.292;17.998;2022-09-20T15:43:22;23.57;48.55
72712;SHT30;60828;40.292;17.998;2022-09-20T15:48:44;23.58;49.33
72712;SHT30;60828;40.292;17.998;2022-09-20T15:51:10;23.50;50.03
72712;SHT30;60828;40.292;17.998;2022-09-20T15:56:49;23.42;50.76
72712;SHT30;60828;40.292;17.998;2022-09-20T15:59:16;23.34;51.31
72712;SHT30;60828;40.292;17.998;2022-09-20T16:01:56;23.39;51.08
72712;SHT30;60828;40.292;17.998;2022-09-20T16:04:21;23.43;51.23
72712;SHT30;60828;40.292;17.998;2022-09-20T16:06:48;23.27;51.39
72712;SHT30;60828;40.292;17.998;2022-09-20T16:09:14;23.10;51.89
72712;SHT30;60828;40.292;17.998;2022-09-20T16:11:40;22.99;52.12
72712;SHT30;60828;40.292;17.998;2022-09-20T16:14:11;22.96;52.35
72712;SHT30;60828;40.292;17.998;2022-09-20T16:19:39;22.76;52.36
72712;SHT30;60828;40.292;17.998;2022-09-20T16:22:08;22.60;53.17
72712;SHT30;60828;40.292;17.998;2022-09-20T16:24:34;22.65;52.92
72712;SHT30;60828;40.292;17.998;2022-09-20T16:27:01;22.61;53.37
72712;SHT30;60828;40.292;17.998;2022-09-20T16:29:27;22.47;53.65
72712;SHT30;60828;40.292;17.998;2022-09-20T16:31:54;22.47;53.34
72712;SHT30;60828;40.292;17.998;2022-09-20T16:37:25;22.47;54.47
72712;SHT30;60828;40.292;17.998;2022-09-20T16:40:15;22.50;54.54
72712;SHT30;60828;40.292;17.998;2022-09-20T16:43:17;22.37;54.63
72712;SHT30;60828;40.292;17.998;2022-09-20T16:46:05;22.29;55.02
72712;SHT30;60828;40.292;17.998;2022-09-20T17:04:36;21.85;57.12
72712;SHT30;60828;40.292;17.998;2022-09-20T18:09:06;21.14;60.13
72712;SHT30;60828;40.292;17.998;2022-09-20T18:18:08;21.04;60.64
72712;SHT30;60828;40.292;17.998;2022-09-20T18:20:52;20.93;60.81
72712;SHT30;60828;40.292;17.998;2022-09-20T19:33:03;20.14;63.83
72712;SHT30;60828;40.292;17.998;2022-09-20T19:54:04;19.69;65.36
72712;SHT30;60828;40.292;17.998;2022-09-20T20:53:51;19.11;67.41
72712;SHT30;60828;40.292;17.998;2022-09-20T22:11:34;18.59;69.17
72712;SHT30;60828;40.292;17.998;2022-09-20T22:24:28;18.86;68.28
